Time;durP1;ratioP1;P1;durP2;ratioP2;P2;SDS_P1;SDS_P2;PMS_P1;PMS_P2;Temp;Humidity;BMP_temperature;BMP_pressure;BME280_temperature;BME280_humidity;BME280_pressure;Samples;Min_cycle;Max_cycle;Signal;HPM_P1;HPM_P2
2021/04/24 00:01:08;;;;;;;12.52;5.50;;;;;;;8.31;74.86;99397.13;5043626;28;20390;-65
2021/04/24 00:03:35;;;;;;;8.30;5.47;;;;;;;8.23;74.17;99391.09;5046474;28;20095;-68
2021/04/24 00:06:03;;;;;;;11.45;5.97;;;;;;;8.41;74.48;99385.50;5012656;28;20077;-69
2021/04/24 00:08:29;;;;;;;10.18;5.78;;;;;;;8.39;74.31;99382.00;5043969;28;20493;-69
2021/04/24 00:10:55;;;;;;;11.82;5.20;;;;;;;8.47;74.26;99382.72;5044769;28;20051;-66
2021/04/24 00:13:21;;;;;;;13.45;5.32;;;;;;;8.40;73.70;99381.13;5044570;28;21898;-67
2021/04/24 00:15:48;;;;;;;16.73;6.63;;;;;;;8.36;74.09;99384.72;5043988;28;20471;-69
2021/04/24 00:18:14;;;;;;;18.73;6.32;;;;;;;8.31;73.70;99372.50;5044843;28;20545;-66
2021/04/24 00:20:41;;;;;;;15.20;6.40;;;;;;;8.35;73.80;99358.31;5044422;28;20041;-68
2021/04/24 00:23:07;;;;;;;12.38;5.63;;;;;;;8.24;73.42;99363.78;5044733;28;20040;-68
2021/04/24 00:25:33;;;;;;;16.25;6.80;;;;;;;8.38;73.36;99353.84;5026387;28;20080;-67
2021/04/24 00:28:10;;;;;;;11.73;5.63;;;;;;;8.17;73.50;99351.56;5045559;28;20515;-66
2021/04/24 00:30:39;;;;;;;17.17;6.50;;;;;;;8.28;73.13;99346.97;5050639;28;20041;-65
2021/04/24 00:33:05;;;;;;;20.00;7.20;;;;;;;8.25;73.12;99347.06;5037349;28;20049;-69
2021/04/24 00:35:32;;;;;;;18.83;7.35;;;;;;;8.34;73.13;99343.34;5048399;28;20059;-67
2021/04/24 00:38:00;;;;;;;16.65;7.40;;;;;;;8.20;73.62;99340.91;5048860;28;20036;-70
2021/04/24 00:40:26;;;;;;;17.08;7.20;;;;;;;8.29;73.77;99342.56;5063984;28;20060;-70
2021/04/24 00:43:01;;;;;;;17.45;7.45;;;;;;;8.20;73.34;99335.63;5065961;28;20123;-68
2021/04/24 00:45:27;;;;;;;16.05;7.85;;;;;;;8.04;73.78;99320.09;5062261;28;20075;-68
2021/04/24 00:47:55;;;;;;;16.83;7.40;;;;;;;8.05;73.29;99313.91;5046990;28;20052;-71
2021/04/24 00:50:34;;;;;;;21.73;8.32;;;;;;;8.11;74.00;99321.75;5014701;28;20044;-70
2021/04/24 00:53:00;;;;;;;13.73;7.43;;;;;;;8.08;73.19;99305.97;5037958;28;20047;-66
2021/04/24 00:55:27;;;;;;;18.20;8.60;;;;;;;8.25;73.44;99317.13;5066715;28;20048;-69
2021/04/24 00:58:07;;;;;;;20.38;8.65;;;;;;;8.22;73.91;99322.44;5067350;28;20502;-67
2021/04/24 01:00:33;;;;;;;24.25;9.70;;;;;;;8.22;74.01;99322.44;5064726;28;20048;-71
2021/04/24 01:02:59;;;;;;;13.40;8.80;;;;;;;8.16;73.74;99314.63;5046090;28;20041;-69
2021/04/24 01:05:32;;;;;;;18.50;9.95;;;;;;;8.15;74.41;99300.53;5048315;28;20493;-69
2021/04/24 01:07:58;;;;;;;14.43;8.27;;;;;;;8.21;74.13;99299.59;5049077;28;20496;-68
2021/04/24 01:10:25;;;;;;;15.95;9.38;;;;;;;8.16;74.46;99298.78;5029846;28;20063;-68
2021/04/24 01:12:52;;;;;;;13.07;9.00;;;;;;;8.18;75.04;99300.47;5046131;28;20866;-68
2021/04/24 01:15:19;;;;;;;12.35;8.65;;;;;;;8.06;75.11;99295.41;5030396;28;20500;-68
2021/04/24 01:17:46;;;;;;;14.43;8.73;;;;;;;8.22;74.55;99298.69;5012985;28;20113;-70
2021/04/24 01:20:13;;;;;;;13.15;8.38;;;;;;;8.16;76.10;99299.63;5043803;28;20087;-67
2021/04/24 01:22:44;;;;;;;12.55;8.30;;;;;;;8.26;74.62;99295.97;5045309;28;20496;-68
2021/04/24 01:25:14;;;;;;;13.67;8.00;;;;;;;8.36;74.05;99294.91;5047002;28;20040;-71
2021/04/24 01:27:40;;;;;;;10.43;7.43;;;;;;;8.36;73.50;99278.19;5028124;28;20307;-68
2021/04/24 01:30:09;;;;;;;19.00;7.68;;;;;;;8.22;74.30;99241.47;5045566;28;20033;-68
2021/04/24 01:32:38;;;;;;;12.70;8.23;;;;;;;8.38;73.61;99242.91;5043568;28;20123;-68
2021/04/24 01:35:16;;;;;;;10.88;6.88;;;;;;;8.22;73.40;99256.44;5026795;28;20041;-68
2021/04/24 01:37:43;;;;;;;8.88;6.25;;;;;;;8.08;74.04;99247.88;5045714;28;20045;-67
2021/04/24 01:40:12;;;;;;;10.27;5.63;;;;;;;8.04;74.04;99248.81;5046262;28;20040;-68
2021/04/24 01:42:39;;;;;;;8.98;5.28;;;;;;;7.91;74.71;99242.88;5027015;28;20198;-68
2021/04/24 01:45:07;;;;;;;8.73;5.30;;;;;;;7.88;75.12;99240.28;5028511;28;20099;-69
2021/04/24 01:47:34;;;;;;;10.95;5.97;;;;;;;7.99;74.66;99235.69;5011163;28;20559;-68
2021/04/24 01:50:00;;;;;;;7.78;5.40;;;;;;;7.96;74.78;99233.09;5044187;28;20116;-67
2021/04/24 01:52:36;;;;;;;9.52;5.90;;;;;;;7.98;75.16;99225.16;5046623;28;20068;-65
2021/04/24 01:55:05;;;;;;;9.50;5.63;;;;;;;7.92;74.77;99220.00;5046617;28;20052;-67
2021/04/24 01:57:31;;;;;;;7.70;5.25;;;;;;;7.96;74.89;99217.28;5025941;28;20037;-68
2021/04/24 01:59:57;;;;;;;10.07;5.80;;;;;;;7.93;74.83;99221.75;5045074;28;20048;-68
2021/04/24 02:02:24;;;;;;;11.60;6.20;;;;;;;7.98;75.24;99220.78;5026560;28;20052;-66
2021/04/24 02:04:51;;;;;;;7.88;5.20;;;;;;;7.98;74.07;99212.84;5031659;28;20519;-69
2021/04/24 02:07:18;;;;;;;10.32;5.70;;;;;;;7.92;74.40;99215.59;5029187;28;20044;-68
2021/04/24 02:09:48;;;;;;;6.65;5.07;;;;;;;7.69;75.00;99217.78;5030236;28;20397;-69
2021/04/24 02:12:14;;;;;;;7.80;5.18;;;;;;;7.80;75.13;99212.31;5047684;28;20049;-68
2021/04/24 02:14:58;;;;;;;6.70;4.65;;;;;;;7.71;74.16;99208.06;5044879;28;20100;-67
2021/04/24 02:17:26;;;;;;;6.88;4.82;;;;;;;7.77;74.87;99221.16;5044217;28;20671;-66
2021/04/24 02:19:54;;;;;;;6.68;4.60;;;;;;;7.69;74.63;99223.06;5029043;28;20182;-68
2021/04/24 02:22:21;;;;;;;7.32;4.65;;;;;;;7.60;75.19;99223.19;5030494;28;20128;-67
2021/04/24 02:24:54;;;;;;;8.88;4.70;;;;;;;7.82;74.62;99234.25;5048930;28;20041;-68
2021/04/24 02:27:20;;;;;;;8.77;4.55;;;;;;;7.72;74.22;99227.41;5047219;28;20045;-69
2021/04/24 02:29:48;;;;;;;6.45;4.30;;;;;;;7.60;74.68;99225.00;5048038;28;20039;-66
2021/04/24 02:32:15;;;;;;;8.00;4.70;;;;;;;7.66;74.81;99231.03;5031202;28;20060;-67
2021/04/24 02:34:44;;;;;;;9.95;4.38;;;;;;;7.59;75.14;99224.09;5031960;28;20558;-68
2021/04/24 02:37:15;;;;;;;6.82;4.28;;;;;;;7.67;75.01;99216.94;5046679;28;20052;-67
2021/04/24 02:39:45;;;;;;;8.05;5.00;;;;;;;7.28;76.01;99216.72;5032399;28;20064;-66
2021/04/24 02:42:24;;;;;;;8.60;5.45;;;;;;;7.40;75.92;99198.06;5031944;28;20045;-67
2021/04/24 02:44:51;;;;;;;7.25;4.78;;;;;;;7.63;75.54;99195.88;5048265;28;20135;-69
2021/04/24 02:47:18;;;;;;;11.70;5.30;;;;;;;7.63;75.12;99199.41;5030053;28;20132;-66
2021/04/24 02:49:46;;;;;;;10.55;5.60;;;;;;;7.49;74.77;99204.06;5031127;28;20533;-70
2021/04/24 02:52:12;;;;;;;9.05;5.05;;;;;;;7.68;74.24;99197.56;5030058;28;20377;-68
2021/04/24 02:54:38;;;;;;;7.90;4.78;;;;;;;7.71;74.96;99196.66;5049392;28;20136;-68
2021/04/24 02:57:05;;;;;;;10.18;5.53;;;;;;;7.69;74.54;99195.78;5048112;28;20091;-67
2021/04/24 02:59:31;;;;;;;7.53;4.95;;;;;;;7.58;74.84;99190.72;5045329;28;20045;-69
2021/04/24 03:01:57;;;;;;;10.25;5.43;;;;;;;7.39;75.10;99180.47;5049642;28;20106;-68
2021/04/24 03:04:24;;;;;;;9.88;5.50;;;;;;;7.21;75.55;99154.44;5048684;28;20094;-68
2021/04/24 03:06:51;;;;;;;10.88;6.40;;;;;;;7.26;76.05;99171.03;5049194;28;20127;-66
2021/04/24 03:09:17;;;;;;;9.88;6.00;;;;;;;7.38;75.45;99165.56;5012770;28;20045;-66
2021/04/24 03:11:43;;;;;;;14.20;6.38;;;;;;;7.39;75.59;99147.09;5047155;28;20056;-67
2021/04/24 03:14:10;;;;;;;10.68;7.22;;;;;;;7.05;75.79;99156.47;5013898;28;20041;-66
2021/04/24 03:16:37;;;;;;;12.18;7.97;;;;;;;7.32;75.47;99153.34;5043460;28;20060;-66
2021/04/24 03:19:08;;;;;;;11.93;8.50;;;;;;;7.13;75.72;99145.78;5029397;28;20059;-65
2021/04/24 03:21:35;;;;;;;16.77;9.95;;;;;;;7.14;76.75;99153.66;5048139;28;20361;-65
2021/04/24 03:24:03;;;;;;;16.27;8.43;;;;;;;7.29;75.95;99163.97;5046633;28;20186;-68
2021/04/24 03:26:30;;;;;;;12.25;8.82;;;;;;;7.40;75.90;99159.38;5048145;28;20056;-67
2021/04/24 03:28:56;;;;;;;12.25;7.88;;;;;;;7.17;76.08;99151.00;5047357;28;20055;-69
2021/04/24 03:31:22;;;;;;;13.40;7.78;;;;;;;6.97;75.58;99141.66;5046560;28;20045;-66
2021/04/24 03:33:48;;;;;;;12.82;8.13;;;;;;;7.33;75.28;99155.13;5045535;28;20049;-66
2021/04/24 03:36:15;;;;;;;15.93;7.47;;;;;;;7.08;75.07;99153.75;5047772;28;20083;-67
2021/04/24 03:38:41;;;;;;;16.10;6.30;;;;;;;7.00;76.20;99154.78;5046324;28;20075;-66
2021/04/24 03:41:08;;;;;;;11.07;6.40;;;;;;;7.15;75.86;99147.50;5012350;28;20183;-67
2021/04/24 03:43:35;;;;;;;19.17;7.43;;;;;;;6.99;75.80;99146.00;5029354;28;20033;-69
2021/04/24 03:46:01;;;;;;;16.05;6.63;;;;;;;6.83;76.15;99140.97;5028504;28;20064;-69
2021/04/24 03:48:27;;;;;;;14.82;5.70;;;;;;;7.02;76.17;99135.41;5029020;28;20071;-66
2021/04/24 03:50:54;;;;;;;14.13;6.63;;;;;;;7.18;75.74;99126.38;5027768;28;20106;-69
2021/04/24 03:53:22;;;;;;;18.30;6.65;;;;;;;7.14;76.04;99129.94;5013239;28;20072;-66
2021/04/24 03:55:49;;;;;;;20.83;7.60;;;;;;;7.11;76.53;99122.09;5045772;28;20109;-66
2021/04/24 03:58:15;;;;;;;19.90;7.88;;;;;;;7.10;76.65;99124.75;5028154;28;20144;-67
2021/04/24 04:00:41;;;;;;;11.32;7.80;;;;;;;7.02;77.21;99124.00;5046485;28;20218;-68
2021/04/24 04:03:09;;;;;;;12.18;8.30;;;;;;;6.90;77.06;99093.44;5029534;28;20056;-66
2021/04/24 04:05:37;;;;;;;12.85;8.40;;;;;;;7.14;76.41;99124.69;5045831;28;20083;-66
2021/04/24 04:08:06;;;;;;;9.57;7.53;;;;;;;6.94;76.85;99116.22;5011025;28;20517;-66
2021/04/24 04:10:34;;;;;;;10.43;7.75;;;;;;;6.76;77.92;99110.38;5047551;28;20045;-67
2021/04/24 04:13:00;;;;;;;12.85;7.18;;;;;;;6.54;77.96;99109.81;5045980;28;20045;-67
2021/04/24 04:15:28;;;;;;;12.70;7.63;;;;;;;6.77;77.60;99106.84;5045442;28;20500;-67
2021/04/24 04:18:00;;;;;;;10.77;7.47;;;;;;;6.71;77.19;99099.00;5046357;28;20057;-67
2021/04/24 04:20:29;;;;;;;14.27;7.50;;;;;;;6.98;77.52;99107.38;5030182;28;20194;-68
2021/04/24 04:22:56;;;;;;;9.95;6.70;;;;;;;6.70;77.28;99102.56;5045711;28;20053;-68
2021/04/24 04:25:23;;;;;;;8.45;5.78;;;;;;;6.94;76.97;99100.41;5046650;28;20044;-66
2021/04/24 04:27:49;;;;;;;11.55;6.78;;;;;;;6.97;76.79;99112.66;5047606;28;20247;-68
2021/04/24 04:30:18;;;;;;;9.25;5.78;;;;;;;6.74;77.15;99115.66;5046195;28;20101;-69
2021/04/24 04:32:44;;;;;;;6.88;4.30;;;;;;;6.59;75.85;99099.19;5044835;28;20056;-67
2021/04/24 04:35:12;;;;;;;7.53;5.68;;;;;;;6.56;77.11;99102.75;5047041;28;20497;-68
2021/04/24 04:37:37;;;;;;;7.97;4.85;;;;;;;6.40;77.21;99077.53;5040752;28;20082;-68
2021/04/24 04:40:05;;;;;;;6.65;4.35;;;;;;;6.38;76.66;99097.78;5027248;28;20519;-66
2021/04/24 04:42:31;;;;;;;6.90;4.63;;;;;;;6.34;77.87;99103.97;5029227;28;20064;-69
2021/04/24 04:44:57;;;;;;;7.72;4.38;;;;;;;6.55;77.61;99095.75;5045784;28;20142;-63
2021/04/24 04:47:23;;;;;;;6.20;4.07;;;;;;;6.51;77.51;99083.53;5025763;28;20041;-68
2021/04/24 04:49:50;;;;;;;6.03;3.83;;;;;;;6.31;77.39;99092.59;5045186;28;20040;-68
2021/04/24 04:52:16;;;;;;;9.30;3.70;;;;;;;6.48;77.31;99087.97;5040847;28;20135;-68
2021/04/24 04:54:42;;;;;;;3.80;2.85;;;;;;;6.46;75.57;99093.28;5013483;28;20072;-70
2021/04/24 04:57:08;;;;;;;6.97;3.95;;;;;;;6.54;76.85;99107.19;5044948;28;20057;-68
2021/04/24 04:59:34;;;;;;;5.38;3.42;;;;;;;6.48;75.78;99109.91;5047974;28;20504;-70
2021/04/24 05:02:01;;;;;;;6.38;3.30;;;;;;;6.39;76.04;99098.63;5028984;28;20060;-69
2021/04/24 05:04:27;;;;;;;5.43;3.10;;;;;;;6.29;76.86;99094.41;5030320;28;20116;-69
2021/04/24 05:06:53;;;;;;;4.85;3.15;;;;;;;6.37;75.47;99106.53;5044277;28;20527;-69
2021/04/24 05:09:21;;;;;;;4.68;2.70;;;;;;;6.53;75.30;99113.31;5048038;28;20080;-71
2021/04/24 05:11:49;;;;;;;6.03;2.67;;;;;;;6.36;75.45;99102.16;5046718;28;20144;-69
2021/04/24 05:14:16;;;;;;;2.80;1.83;;;;;;;6.20;74.48;99090.13;5027942;28;20136;-70
2021/04/24 05:16:42;;;;;;;5.28;2.25;;;;;;;6.12;74.89;99105.13;5028943;28;20064;-69
2021/04/24 05:19:08;;;;;;;4.38;1.88;;;;;;;6.12;75.67;99101.63;5029191;28;20424;-69
2021/04/24 05:21:34;;;;;;;2.53;1.90;;;;;;;6.17;75.00;99084.88;5047800;28;20041;-69
2021/04/24 05:24:05;;;;;;;6.35;2.25;;;;;;;6.27;75.35;99088.25;5045249;28;20037;-69
2021/04/24 05:26:32;;;;;;;4.30;2.47;;;;;;;6.05;75.74;99081.56;5029635;28;20095;-70
2021/04/24 05:28:59;;;;;;;4.47;2.60;;;;;;;6.35;75.97;99082.00;5046831;28;20435;-68
2021/04/24 05:31:28;;;;;;;7.97;2.70;;;;;;;6.14;76.07;99079.69;5041826;28;20491;-67
2021/04/24 05:33:54;;;;;;;3.40;2.08;;;;;;;6.23;75.41;99076.03;5044158;28;20446;-66
2021/04/24 05:36:21;;;;;;;3.90;2.83;;;;;;;6.05;75.76;99077.16;5027686;28;20075;-68
2021/04/24 05:38:51;;;;;;;3.70;2.60;;;;;;;5.79;75.86;99029.25;5028091;28;20189;-70
2021/04/24 05:41:21;;;;;;;5.50;2.72;;;;;;;6.17;75.74;99066.47;5015734;28;20041;-69
2021/04/24 05:43:50;;;;;;;7.13;3.00;;;;;;;6.03;75.56;99033.34;5051246;28;20063;-69
2021/04/24 05:46:17;;;;;;;6.07;2.50;;;;;;;5.72;76.07;99050.38;5054765;28;20365;-68
2021/04/24 05:48:43;;;;;;;2.80;2.30;;;;;;;5.86;77.08;99035.34;5024599;28;20094;-69
2021/04/24 05:51:10;;;;;;;4.63;2.47;;;;;;;5.97;76.05;99001.88;5035122;28;20041;-70
2021/04/24 05:53:35;;;;;;;3.13;2.10;;;;;;;5.83;75.42;98980.13;5051250;28;20044;-70
2021/04/24 05:56:01;;;;;;;3.83;2.53;;;;;;;5.60;77.28;98961.13;5014991;28;20045;-69
2021/04/24 05:58:27;;;;;;;3.97;2.40;;;;;;;5.82;77.33;98988.91;5050681;28;20043;-71
2021/04/24 06:00:53;;;;;;;4.47;1.70;;;;;;;5.30;76.88;99040.38;5049841;28;20049;-72
2021/04/24 06:03:19;;;;;;;6.97;2.50;;;;;;;4.95;79.44;99090.63;5046502;28;20077;-67
2021/04/24 06:05:45;;;;;;;6.57;2.60;;;;;;;5.05;80.38;99079.13;5047385;28;20041;-66
2021/04/24 06:08:12;;;;;;;3.92;2.20;;;;;;;5.38;78.15;98973.66;5031499;28;20036;-70
2021/04/24 06:10:38;;;;;;;3.03;2.22;;;;;;;5.53;78.18;98955.06;5049079;28;20076;-68
2021/04/24 06:13:04;;;;;;;3.15;2.05;;;;;;;5.64;78.25;98952.28;5046994;28;20060;-68
2021/04/24 06:15:30;;;;;;;2.40;2.00;;;;;;;6.01;78.05;98988.63;5048341;28;20059;-69
2021/04/24 06:17:56;;;;;;;3.58;1.88;;;;;;;5.98;76.02;98995.72;5047804;28;20060;-68
2021/04/24 06:20:22;;;;;;;4.15;2.28;;;;;;;6.06;77.53;99002.59;5066710;28;20052;-70
2021/04/24 06:22:48;;;;;;;4.30;2.25;;;;;;;5.88;77.12;98989.69;5067547;28;20059;-68
2021/04/24 06:25:17;;;;;;;3.42;2.17;;;;;;;6.13;75.72;98990.22;5046692;22;20073;-69
2021/04/24 06:27:44;;;;;;;4.30;2.10;;;;;;;6.12;76.92;98994.59;5007183;28;20589;-76
2021/04/24 06:30:14;;;;;;;4.07;2.40;;;;;;;6.26;76.62;98986.50;5006212;28;20136;-68
2021/04/24 06:32:41;;;;;;;3.35;2.00;;;;;;;6.23;75.52;98973.38;4975407;28;20053;-69
2021/04/24 06:35:10;;;;;;;3.10;2.05;;;;;;;6.34;75.13;98977.59;5009036;28;20128;-68
2021/04/24 06:37:37;;;;;;;4.63;1.90;;;;;;;6.58;73.48;98973.69;5005161;28;20548;-67
2021/04/24 06:40:08;;;;;;;2.67;2.00;;;;;;;6.45;73.84;98980.91;5008738;28;20421;-67
2021/04/24 06:42:34;;;;;;;2.92;2.10;;;;;;;6.55;74.42;98989.53;5004535;28;20386;-76
2021/04/24 06:45:01;;;;;;;3.50;2.67;;;;;;;6.61;74.44;98982.41;4990557;28;20037;-75
2021/04/24 06:47:27;;;;;;;8.07;3.05;;;;;;;6.49;74.25;98977.34;5007836;28;20543;-74
2021/04/24 06:49:53;;;;;;;8.85;2.42;;;;;;;6.45;74.35;98978.28;5007453;28;20096;-74
2021/04/24 06:52:19;;;;;;;4.47;2.50;;;;;;;6.26;74.46;98968.09;5006974;28;20093;-78
2021/04/24 06:54:45;;;;;;;4.00;2.40;;;;;;;6.13;74.68;98985.81;4985262;28;20046;-74
2021/04/24 06:57:11;;;;;;;4.88;3.00;;;;;;;6.48;74.89;98980.03;5007395;28;20469;-76
2021/04/24 06:59:40;;;;;;;4.65;3.03;;;;;;;6.30;74.84;98981.19;5008108;28;20366;-88
2021/04/24 07:02:08;;;;;;;4.97;3.25;;;;;;;6.27;74.89;98978.59;4991546;28;20096;-76
2021/04/24 07:04:34;;;;;;;7.22;3.30;;;;;;;6.48;75.05;98987.94;5008886;28;20115;-68
2021/04/24 07:07:00;;;;;;;7.15;3.00;;;;;;;6.52;74.52;98986.97;5007439;28;20477;-67
2021/04/24 07:09:26;;;;;;;3.78;3.03;;;;;;;6.47;74.02;98983.53;4991652;28;20100;-64
2021/04/24 07:11:52;;;;;;;5.78;3.70;;;;;;;6.44;74.86;98986.22;5005119;28;20046;-66
2021/04/24 07:14:17;;;;;;;4.78;3.33;;;;;;;6.54;75.45;98985.16;5006805;28;20037;-65
2021/04/24 07:16:43;;;;;;;6.90;2.85;;;;;;;6.16;75.13;98985.78;5007132;28;20077;-60
2021/04/24 07:19:09;;;;;;;6.10;3.45;;;;;;;6.25;74.74;98969.84;5007168;28;20049;-67
2021/04/24 07:21:51;;;;;;;6.25;4.10;;;;;;;5.95;75.93;98951.00;5007103;28;20050;-67
2021/04/24 07:24:17;;;;;;;5.38;4.18;;;;;;;6.27;75.29;98975.06;5002479;28;20474;-68
2021/04/24 07:26:53;;;;;;;7.95;3.80;;;;;;;6.01;76.73;98978.09;4991202;28;20532;-71
2021/04/24 07:29:22;;;;;;;4.78;4.10;;;;;;;6.23;75.44;98966.38;4991791;28;20551;-68
2021/04/24 07:31:57;;;;;;;4.65;3.47;;;;;;;5.99;76.36;98953.59;5010645;28;20044;-69
2021/04/24 07:34:27;;;;;;;6.20;3.75;;;;;;;5.91;76.95;98955.47;4972382;28;20053;-67
2021/04/24 07:36:53;;;;;;;7.00;2.80;;;;;;;5.81;76.51;98953.84;4991235;28;20127;-65
2021/04/24 07:39:19;;;;;;;8.07;3.42;;;;;;;5.34;79.03;98952.72;4989703;28;20042;-66
2021/04/24 07:41:45;;;;;;;4.25;3.00;;;;;;;5.27;79.42;98949.28;5003873;28;20501;-69
2021/04/24 07:44:12;;;;;;;4.72;3.42;;;;;;;5.26;79.97;98952.78;5007296;28;20129;-68
2021/04/24 07:46:38;;;;;;;5.95;3.70;;;;;;;5.43;79.61;98955.22;5007211;28;20117;-66
2021/04/24 07:49:05;;;;;;;5.95;3.78;;;;;;;5.55;79.38;98950.69;4988900;28;20535;-66
2021/04/24 07:51:31;;;;;;;3.70;3.30;;;;;;;5.51;78.87;98961.25;5004959;28;20069;-72
2021/04/24 07:53:57;;;;;;;4.47;3.28;;;;;;;5.62;78.55;98954.94;4990584;28;20447;-72
2021/04/24 07:56:24;;;;;;;5.57;3.47;;;;;;;5.58;78.19;98960.28;4987212;28;20058;-65
2021/04/24 07:58:50;;;;;;;6.45;3.35;;;;;;;5.67;77.95;98953.16;4985272;28;20069;-69
2021/04/24 08:01:19;;;;;;;6.70;3.22;;;;;;;5.70;77.80;98953.09;4969898;28;20120;-66
2021/04/24 08:03:46;;;;;;;3.70;3.10;;;;;;;5.52;77.00;98950.72;4987609;28;20085;-67
2021/04/24 08:06:12;;;;;;;4.15;3.60;;;;;;;5.76;77.62;98942.50;5005102;28;20056;-69
2021/04/24 08:08:44;;;;;;;6.90;3.20;;;;;;;5.59;78.47;98957.63;4974929;28;20872;-66
2021/04/24 08:11:14;;;;;;;8.07;3.15;;;;;;;5.67;77.16;98947.88;5006276;28;20046;-66
2021/04/24 08:14:11;;;;;;;10.48;3.22;;;;;;;5.35;78.31;98942.19;4993130;28;20158;-67
2021/04/24 08:16:36;;;;;;;5.55;3.42;;;;;;;5.29;79.48;98949.28;5007161;28;20041;-66
2021/04/24 08:19:03;;;;;;;6.28;3.67;;;;;;;5.25;78.12;98947.56;4988503;28;20495;-72
2021/04/24 08:21:30;;;;;;;4.93;2.78;;;;;;;5.43;78.23;98953.47;5003982;28;20490;-65
2021/04/24 08:23:59;;;;;;;3.60;3.10;;;;;;;5.45;77.50;98946.41;4969065;28;20050;-67
2021/04/24 08:26:30;;;;;;;3.65;2.92;;;;;;;5.31;76.18;98929.97;4993850;28;20054;-68
2021/04/24 08:28:57;;;;;;;5.07;2.88;;;;;;;5.33;76.88;98948.34;5003040;28;20081;-65
2021/04/24 08:31:24;;;;;;;4.78;3.15;;;;;;;5.35;77.52;98957.94;5005463;28;20049;-67
2021/04/24 08:33:50;;;;;;;5.55;3.08;;;;;;;5.16;77.68;98932.78;5005227;28;20045;-66
2021/04/24 08:36:17;;;;;;;4.47;2.55;;;;;;;5.17;77.37;98946.81;5002444;28;20382;-70
2021/04/24 08:38:43;;;;;;;5.63;3.58;;;;;;;5.26;77.72;98926.50;5006453;28;20044;-66
2021/04/24 08:41:09;;;;;;;7.07;4.15;;;;;;;5.32;77.01;98941.34;5006327;28;20112;-65
2021/04/24 08:43:39;;;;;;;7.95;3.80;;;;;;;5.36;76.69;98956.19;5005199;28;20045;-65
2021/04/24 08:46:06;;;;;;;6.00;2.97;;;;;;;5.33;77.56;98949.19;5004377;28;20042;-66
2021/04/24 08:48:34;;;;;;;3.63;2.78;;;;;;;4.99;77.61;98937.38;5005470;28;20084;-66
2021/04/24 08:51:01;;;;;;;4.30;2.85;;;;;;;4.90;78.13;98935.69;5005480;28;20115;-63
2021/04/24 08:53:27;;;;;;;4.53;3.38;;;;;;;5.08;78.20;98945.97;5003240;28;20045;-66
2021/04/24 08:55:54;;;;;;;3.20;2.47;;;;;;;5.15;77.43;98954.69;5004594;28;20084;-67
2021/04/24 08:58:20;;;;;;;6.15;2.97;;;;;;;5.09;76.91;98949.50;4972077;28;20140;-66
2021/04/24 09:00:49;;;;;;;7.80;2.83;;;;;;;5.19;76.22;98943.25;5005250;28;20052;-69
2021/04/24 09:03:20;;;;;;;4.38;2.70;;;;;;;5.40;76.47;98948.25;5005686;28;20088;-63
2021/04/24 09:05:55;;;;;;;5.35;2.75;;;;;;;5.00;77.11;98937.31;5003386;28;20180;-63
2021/04/24 09:08:26;;;;;;;4.85;3.67;;;;;;;5.07;77.72;98937.28;5002797;28;20073;-69
2021/04/24 09:10:57;;;;;;;4.38;3.10;;;;;;;4.90;77.50;98943.59;4989290;28;20042;-63
2021/04/24 09:13:25;;;;;;;5.47;3.38;;;;;;;4.89;77.40;98948.84;5004970;28;20111;-62
2021/04/24 09:15:53;;;;;;;7.35;3.70;;;;;;;4.83;78.61;98941.91;4970768;28;20052;-65
2021/04/24 09:18:21;;;;;;;4.50;3.58;;;;;;;4.96;77.41;98935.63;5000212;28;20069;-66
2021/04/24 09:20:53;;;;;;;5.55;3.70;;;;;;;5.19;77.20;98939.75;4970837;28;20042;-66
2021/04/24 09:23:21;;;;;;;5.70;3.67;;;;;;;5.10;76.57;98942.50;5003293;28;20127;-71
2021/04/24 09:25:50;;;;;;;4.90;3.67;;;;;;;5.33;77.41;98940.47;5004444;28;20089;-66
2021/04/24 09:28:35;;;;;;;5.53;3.75;;;;;;;5.25;77.30;98935.28;5005598;28;20072;-66
2021/04/24 09:31:09;;;;;;;4.00;3.35;;;;;;;5.07;77.76;98935.53;5004912;28;20056;-72
2021/04/24 09:33:36;;;;;;;4.75;3.60;;;;;;;5.09;77.31;98925.84;5005305;28;20103;-74
2021/04/24 09:36:06;;;;;;;5.40;3.75;;;;;;;5.21;77.30;98930.97;4986991;28;20457;-75
2021/04/24 09:38:35;;;;;;;7.07;3.45;;;;;;;5.02;77.66;98928.59;5008040;28;20042;-73
2021/04/24 09:44:48;;;;;;;5.25;3.70;;;;;;;5.33;77.09;98937.84;5003389;28;20479;-70
2021/04/24 09:47:14;;;;;;;6.35;3.65;;;;;;;5.27;76.83;98928.28;4988385;28;20115;-69
2021/04/24 09:49:40;;;;;;;4.25;3.17;;;;;;;5.16;77.32;98932.78;5004578;28;20046;-71
2021/04/24 09:52:09;;;;;;;4.75;3.50;;;;;;;4.97;78.07;98934.75;5005229;28;20084;-76
2021/04/24 09:54:46;;;;;;;5.55;3.35;;;;;;;5.07;78.35;98938.16;5005472;28;20073;-72
2021/04/24 09:57:21;;;;;;;4.60;3.47;;;;;;;5.15;77.87;98898.63;4984333;28;20125;-69
2021/04/24 10:00:02;;;;;;;4.35;3.30;;;;;;;5.04;78.54;98931.16;5002437;28;20145;-68
2021/04/24 10:02:40;;;;;;;3.60;2.88;;;;;;;4.83;78.12;98899.03;5003970;28;20049;-67
2021/04/24 10:05:21;;;;;;;3.30;2.83;;;;;;;5.15;77.77;98912.66;5001188;28;20555;-66
2021/04/24 10:07:52;;;;;;;4.50;2.55;;;;;;;5.11;77.76;98915.31;5005474;28;20038;-63
2021/04/24 10:10:29;;;;;;;;;;;;;;;4.94;78.33;98911.16;4983204;28;20081;-70
2021/04/24 10:13:06;;;;;;;2.92;2.63;;;;;;;5.04;78.59;98919.78;4984728;28;19988;-66
2021/04/24 10:15:45;;;;;;;4.40;3.10;;;;;;;5.39;77.58;98917.59;4985882;28;20054;-64
2021/04/24 10:18:16;;;;;;;3.63;3.17;;;;;;;5.27;77.60;98907.25;4970358;28;20089;-64
2021/04/24 10:20:45;;;;;;;3.33;2.90;;;;;;;5.18;78.05;98899.47;5004277;28;20042;-66
2021/04/24 10:23:14;;;;;;;4.00;3.42;;;;;;;5.53;77.57;98925.31;5004072;28;20200;-68
2021/04/24 10:25:40;;;;;;;5.82;3.00;;;;;;;5.55;77.71;98927.03;5008296;28;20081;-67
2021/04/24 10:28:07;;;;;;;4.40;3.17;;;;;;;5.57;78.19;98929.63;4975106;28;20044;-66
2021/04/24 10:30:33;;;;;;;5.45;3.45;;;;;;;5.66;78.45;98926.88;4992454;28;20050;-68
2021/04/24 10:33:02;;;;;;;6.07;3.05;;;;;;;5.91;76.16;98918.63;4973944;28;20042;-65
2021/04/24 10:35:30;;;;;;;3.58;3.08;;;;;;;5.73;76.65;98915.38;4989809;28;20053;-67
2021/04/24 10:37:56;;;;;;;5.03;3.15;;;;;;;5.74;77.53;98922.38;5009496;28;20398;-67
2021/04/24 10:40:22;;;;;;;4.78;3.10;;;;;;;5.76;77.75;98926.72;5005174;28;20052;-67
2021/04/24 10:42:55;;;;;;;4.32;3.03;;;;;;;5.90;77.43;98906.38;4991884;28;20042;-68
2021/04/24 10:45:35;;;;;;;5.55;3.53;;;;;;;5.78;76.77;98911.78;5007739;28;20069;-67
2021/04/24 10:48:03;;;;;;;4.82;3.40;;;;;;;5.75;77.71;98935.50;5006558;28;20038;-63
2021/04/24 10:50:38;;;;;;;3.80;2.90;;;;;;;5.81;76.77;98922.28;4989653;28;20119;-66
2021/04/24 10:53:22;;;;;;;3.88;2.80;;;;;;;6.04;76.14;98929.81;4973656;28;20046;-71
2021/04/24 10:55:49;;;;;;;4.13;3.13;;;;;;;6.06;76.22;98923.66;4991253;28;20141;-67
2021/04/24 10:58:18;;;;;;;5.53;2.90;;;;;;;6.09;76.43;98915.69;5008245;28;20128;-66
2021/04/24 11:00:48;;;;;;;3.40;2.85;;;;;;;6.22;75.80;98922.53;5005257;28;20092;-66
2021/04/24 11:03:35;;;;;;;3.30;2.80;;;;;;;6.40;75.63;98922.22;4991044;28;20056;-66
2021/04/24 11:06:17;;;;;;;3.92;2.75;;;;;;;6.61;75.81;98915.72;4972261;28;20073;-68
2021/04/24 11:08:44;;;;;;;3.95;3.22;;;;;;;6.56;75.30;98914.94;5008552;28;20045;-66
2021/04/24 11:11:16;;;;;;;4.05;2.70;;;;;;;6.55;74.46;98915.81;5006740;28;20072;-67
2021/04/24 11:13:48;;;;;;;4.57;2.95;;;;;;;6.56;74.73;98921.03;5005586;28;20550;-66
2021/04/24 11:16:18;;;;;;;4.75;3.40;;;;;;;6.79;74.10;98921.50;5007293;28;20462;-68
2021/04/24 11:18:49;;;;;;;6.15;3.55;;;;;;;6.77;75.22;98914.53;4974953;28;20037;-71
2021/04/24 11:21:18;;;;;;;4.82;3.28;;;;;;;6.77;73.89;98870.59;5008238;28;20053;-67
2021/04/24 11:23:47;;;;;;;3.83;3.30;;;;;;;7.08;73.95;98902.50;5002734;28;20056;-65
2021/04/24 11:26:39;;;;;;;4.20;3.55;;;;;;;6.75;74.80;98898.75;4988176;28;20077;-70
2021/04/24 11:29:22;;;;;;;4.03;3.10;;;;;;;6.93;74.77;98887.84;5001045;28;20074;-71
2021/04/24 11:32:07;;;;;;;4.03;3.13;;;;;;;6.77;74.27;98840.78;5001421;28;20141;-69
2021/04/24 11:34:40;;;;;;;3.97;3.22;;;;;;;6.97;73.46;98851.78;5007886;28;20146;-67
2021/04/24 11:37:24;;;;;;;3.13;2.83;;;;;;;6.75;73.98;98851.34;5007195;28;20141;-65
2021/04/24 11:40:20;;;;;;;6.28;3.30;;;;;;;6.85;75.48;98900.28;4975573;28;20081;-65
2021/04/24 11:42:52;;;;;;;8.45;3.45;;;;;;;7.05;74.88;98929.81;4972294;28;20046;-69
2021/04/24 11:46:01;;;;;;;4.78;2.97;;;;;;;7.19;74.23;98916.31;4989396;28;20057;-65
2021/04/24 11:48:48;;;;;;;3.85;3.05;;;;;;;7.11;73.27;98905.94;5007096;28;20049;-67
2021/04/24 11:51:36;;;;;;;5.43;3.10;;;;;;;7.18;73.80;98912.84;4988468;28;20115;-67